sensor_id;sensor_type;location;lat;lon;timestamp;P1;durP1;ratioP1;P2;durP2;ratioP2
44214;SDS011;29884;47.450;19.124;2022-07-10T00:01:06;0.00;;;0.00;;
44214;SDS011;29884;47.450;19.124;2022-07-10T00:03:32;0.20;;;0.08;;
44214;SDS011;29884;47.450;19.124;2022-07-10T00:05:58;1.38;;;0.17;;
44214;SDS011;29884;47.450;19.124;2022-07-10T00:08:23;0.40;;;0.10;;
44214;SDS011;29884;47.450;19.124;2022-07-10T00:10:49;0.30;;;0.10;;
44214;SDS011;29884;47.450;19.124;2022-07-10T00:13:15;0.30;;;0.10;;
44214;SDS011;29884;47.450;19.124;2022-07-10T00:15:41;0.00;;;0.00;;
44214;SDS011;29884;47.450;19.124;2022-07-10T00:18:06;0.10;;;0.03;;
44214;SDS011;29884;47.450;19.124;2022-07-10T00:20:32;0.57;;;0.10;;
44214;SDS011;29884;47.450;19.124;2022-07-10T00:22:59;0.30;;;0.10;;
44214;SDS011;29884;47.450;19.124;2022-07-10T00:25:25;0.77;;;0.10;;
44214;SDS011;29884;47.450;19.124;2022-07-10T00:27:51;0.35;;;0.10;;
44214;SDS011;29884;47.450;19.124;2022-07-10T00:30:17;0.30;;;0.10;;
44214;SDS011;29884;47.450;19.124;2022-07-10T00:32:42;1.10;;;0.10;;
44214;SDS011;29884;47.450;19.124;2022-07-10T00:35:08;0.10;;;0.10;;
44214;SDS011;29884;47.450;19.124;2022-07-10T00:37:34;0.00;;;0.00;;
44214;SDS011;29884;47.450;19.124;2022-07-10T00:40:01;0.45;;;0.17;;
44214;SDS011;29884;47.450;19.124;2022-07-10T00:42:29;0.30;;;0.10;;
44214;SDS011;29884;47.450;19.124;2022-07-10T00:44:55;2.42;;;0.20;;
44214;SDS011;29884;47.450;19.124;2022-07-10T00:47:21;0.05;;;0.05;;
44214;SDS011;29884;47.450;19.124;2022-07-10T00:49:47;0.00;;;0.00;;
44214;SDS011;29884;47.450;19.124;2022-07-10T00:52:14;0.00;;;0.00;;
44214;SDS011;29884;47.450;19.124;2022-07-10T00:54:43;0.30;;;0.10;;
44214;SDS011;29884;47.450;19.124;2022-07-10T00:57:10;0.10;;;0.05;;
44214;SDS011;29884;47.450;19.124;2022-07-10T00:59:39;2.25;;;0.20;;
44214;SDS011;29884;47.450;19.124;2022-07-10T01:02:06;0.82;;;0.00;;
44214;SDS011;29884;47.450;19.124;2022-07-10T01:04:32;0.25;;;0.08;;
44214;SDS011;29884;47.450;19.124;2022-07-10T01:06:58;0.73;;;0.03;;
44214;SDS011;29884;47.450;19.124;2022-07-10T01:09:24;0.00;;;0.00;;
44214;SDS011;29884;47.450;19.124;2022-07-10T01:11:50;0.10;;;0.00;;
44214;SDS011;29884;47.450;19.124;2022-07-10T01:14:17;0.30;;;0.10;;
44214;SDS011;29884;47.450;19.124;2022-07-10T01:16:43;0.22;;;0.10;;
44214;SDS011;29884;47.450;19.124;2022-07-10T01:19:09;0.10;;;0.10;;
44214;SDS011;29884;47.450;19.124;2022-07-10T01:21:35;0.43;;;0.10;;
44214;SDS011;29884;47.450;19.124;2022-07-10T01:24:08;0.20;;;0.10;;
44214;SDS011;29884;47.450;19.124;2022-07-10T01:26:36;0.25;;;0.10;;
44214;SDS011;29884;47.450;19.124;2022-07-10T01:29:03;0.10;;;0.10;;
44214;SDS011;29884;47.450;19.124;2022-07-10T01:31:30;0.30;;;0.10;;
44214;SDS011;29884;47.450;19.124;2022-07-10T01:33:56;1.95;;;0.10;;
44214;SDS011;29884;47.450;19.124;2022-07-10T01:36:24;0.70;;;0.10;;
44214;SDS011;29884;47.450;19.124;2022-07-10T01:38:52;0.10;;;0.10;;
44214;SDS011;29884;47.450;19.124;2022-07-10T01:41:19;0.22;;;0.10;;
44214;SDS011;29884;47.450;19.124;2022-07-10T01:43:45;0.28;;;0.10;;
44214;SDS011;29884;47.450;19.124;2022-07-10T01:46:13;0.10;;;0.10;;
44214;SDS011;29884;47.450;19.124;2022-07-10T01:48:39;0.75;;;0.10;;
44214;SDS011;29884;47.450;19.124;2022-07-10T01:51:06;0.50;;;0.28;;
44214;SDS011;29884;47.450;19.124;2022-07-10T01:53:33;0.55;;;0.20;;
44214;SDS011;29884;47.450;19.124;2022-07-10T01:56:00;0.70;;;0.30;;
44214;SDS011;29884;47.450;19.124;2022-07-10T01:58:28;0.75;;;0.20;;
44214;SDS011;29884;47.450;19.124;2022-07-10T02:00:54;0.47;;;0.20;;
44214;SDS011;29884;47.450;19.124;2022-07-10T02:03:20;0.70;;;0.43;;
44214;SDS011;29884;47.450;19.124;2022-07-10T02:06:04;1.45;;;0.20;;
44214;SDS011;29884;47.450;19.124;2022-07-10T02:08:30;0.40;;;0.10;;
44214;SDS011;29884;47.450;19.124;2022-07-10T02:10:55;0.10;;;0.10;;
44214;SDS011;29884;47.450;19.124;2022-07-10T02:13:21;0.20;;;0.10;;
44214;SDS011;29884;47.450;19.124;2022-07-10T02:15:49;0.68;;;0.10;;
44214;SDS011;29884;47.450;19.124;2022-07-10T02:18:15;0.20;;;0.10;;
44214;SDS011;29884;47.450;19.124;2022-07-10T02:20:41;0.30;;;0.20;;
44214;SDS011;29884;47.450;19.124;2022-07-10T02:23:07;0.25;;;0.10;;
44214;SDS011;29884;47.450;19.124;2022-07-10T02:25:33;0.68;;;0.10;;
44214;SDS011;29884;47.450;19.124;2022-07-10T02:27:59;0.22;;;0.10;;
44214;SDS011;29884;47.450;19.124;2022-07-10T02:30:24;0.10;;;0.03;;
44214;SDS011;29884;47.450;19.124;2022-07-10T02:32:50;0.10;;;0.10;;
44214;SDS011;29884;47.450;19.124;2022-07-10T02:35:16;0.20;;;0.10;;
44214;SDS011;29884;47.450;19.124;2022-07-10T02:37:42;0.22;;;0.10;;
44214;SDS011;29884;47.450;19.124;2022-07-10T02:40:08;0.25;;;0.10;;
44214;SDS011;29884;47.450;19.124;2022-07-10T02:42:34;0.30;;;0.20;;
44214;SDS011;29884;47.450;19.124;2022-07-10T02:44:59;0.13;;;0.10;;
44214;SDS011;29884;47.450;19.124;2022-07-10T02:47:25;0.13;;;0.10;;
44214;SDS011;29884;47.450;19.124;2022-07-10T02:49:51;0.10;;;0.10;;
44214;SDS011;29884;47.450;19.124;2022-07-10T02:52:16;0.15;;;0.10;;
44214;SDS011;29884;47.450;19.124;2022-07-10T02:54:42;0.65;;;0.10;;
44214;SDS011;29884;47.450;19.124;2022-07-10T02:57:08;0.10;;;0.10;;
44214;SDS011;29884;47.450;19.124;2022-07-10T02:59:33;0.10;;;0.10;;
44214;SDS011;29884;47.450;19.124;2022-07-10T03:01:59;0.40;;;0.20;;
44214;SDS011;29884;47.450;19.124;2022-07-10T03:04:26;0.20;;;0.20;;
44214;SDS011;29884;47.450;19.124;2022-07-10T03:06:52;0.25;;;0.20;;
44214;SDS011;29884;47.450;19.124;2022-07-10T03:09:17;0.45;;;0.30;;
44214;SDS011;29884;47.450;19.124;2022-07-10T03:11:43;0.55;;;0.30;;
44214;SDS011;29884;47.450;19.124;2022-07-10T03:14:09;0.75;;;0.40;;
44214;SDS011;29884;47.450;19.124;2022-07-10T03:16:35;1.00;;;0.20;;
44214;SDS011;29884;47.450;19.124;2022-07-10T03:19:00;0.40;;;0.20;;
44214;SDS011;29884;47.450;19.124;2022-07-10T03:21:26;0.30;;;0.20;;
44214;SDS011;29884;47.450;19.124;2022-07-10T03:23:52;0.63;;;0.30;;
44214;SDS011;29884;47.450;19.124;2022-07-10T03:26:17;0.98;;;0.40;;
44214;SDS011;29884;47.450;19.124;2022-07-10T03:28:43;1.17;;;0.20;;
44214;SDS011;29884;47.450;19.124;2022-07-10T03:31:09;0.57;;;0.30;;
44214;SDS011;29884;47.450;19.124;2022-07-10T03:33:34;0.60;;;0.20;;
44214;SDS011;29884;47.450;19.124;2022-07-10T03:36:00;0.50;;;0.20;;
44214;SDS011;29884;47.450;19.124;2022-07-10T03:38:26;0.40;;;0.20;;
44214;SDS011;29884;47.450;19.124;2022-07-10T03:40:52;0.65;;;0.30;;
44214;SDS011;29884;47.450;19.124;2022-07-10T03:43:18;0.47;;;0.20;;
44214;SDS011;29884;47.450;19.124;2022-07-10T03:45:44;0.20;;;0.20;;
44214;SDS011;29884;47.450;19.124;2022-07-10T03:48:11;0.60;;;0.22;;
44214;SDS011;29884;47.450;19.124;2022-07-10T03:50:37;2.05;;;0.30;;
44214;SDS011;29884;47.450;19.124;2022-07-10T03:53:02;0.40;;;0.30;;
44214;SDS011;29884;47.450;19.124;2022-07-10T03:55:28;1.23;;;0.20;;
44214;SDS011;29884;47.450;19.124;2022-07-10T03:57:54;0.30;;;0.20;;
44214;SDS011;29884;47.450;19.124;2022-07-10T04:00:21;0.20;;;0.20;;
44214;SDS011;29884;47.450;19.124;2022-07-10T04:02:48;0.60;;;0.30;;
44214;SDS011;29884;47.450;19.124;2022-07-10T04:05:19;0.82;;;0.30;;
44214;SDS011;29884;47.450;19.124;2022-07-10T04:07:45;0.50;;;0.20;;
44214;SDS011;29884;47.450;19.124;2022-07-10T04:10:11;0.43;;;0.30;;
44214;SDS011;29884;47.450;19.124;2022-07-10T04:12:37;1.27;;;0.40;;
44214;SDS011;29884;47.450;19.124;2022-07-10T04:15:03;0.70;;;0.50;;
44214;SDS011;29884;47.450;19.124;2022-07-10T04:17:29;1.08;;;0.25;;
44214;SDS011;29884;47.450;19.124;2022-07-10T04:19:57;0.45;;;0.20;;
44214;SDS011;29884;47.450;19.124;2022-07-10T04:22:23;0.30;;;0.20;;
44214;SDS011;29884;47.450;19.124;2022-07-10T04:24:52;0.30;;;0.20;;
44214;SDS011;29884;47.450;19.124;2022-07-10T04:27:18;0.50;;;0.30;;
44214;SDS011;29884;47.450;19.124;2022-07-10T04:29:44;1.95;;;0.40;;
44214;SDS011;29884;47.450;19.124;2022-07-10T04:32:10;0.30;;;0.20;;
44214;SDS011;29884;47.450;19.124;2022-07-10T04:34:36;0.40;;;0.20;;
44214;SDS011;29884;47.450;19.124;2022-07-10T04:37:02;0.30;;;0.20;;
44214;SDS011;29884;47.450;19.124;2022-07-10T04:39:28;0.22;;;0.20;;
44214;SDS011;29884;47.450;19.124;2022-07-10T04:41:53;0.52;;;0.20;;
44214;SDS011;29884;47.450;19.124;2022-07-10T04:44:19;0.50;;;0.30;;
44214;SDS011;29884;47.450;19.124;2022-07-10T04:46:45;0.30;;;0.20;;
44214;SDS011;29884;47.450;19.124;2022-07-10T04:49:11;1.08;;;0.20;;
44214;SDS011;29884;47.450;19.124;2022-07-10T04:51:37;0.32;;;0.20;;
44214;SDS011;29884;47.450;19.124;2022-07-10T04:54:03;0.50;;;0.30;;
44214;SDS011;29884;47.450;19.124;2022-07-10T04:56:29;2.88;;;0.30;;
44214;SDS011;29884;47.450;19.124;2022-07-10T04:58:54;1.85;;;0.30;;
44214;SDS011;29884;47.450;19.124;2022-07-10T05:01:20;0.30;;;0.20;;
44214;SDS011;29884;47.450;19.124;2022-07-10T05:03:46;0.38;;;0.20;;
44214;SDS011;29884;47.450;19.124;2022-07-10T05:06:12;0.95;;;0.20;;
44214;SDS011;29884;47.450;19.124;2022-07-10T05:08:38;0.30;;;0.20;;
44214;SDS011;29884;47.450;19.124;2022-07-10T05:11:04;0.60;;;0.20;;
44214;SDS011;29884;47.450;19.124;2022-07-10T05:13:30;0.80;;;0.20;;
44214;SDS011;29884;47.450;19.124;2022-07-10T05:15:56;0.20;;;0.20;;
44214;SDS011;29884;47.450;19.124;2022-07-10T05:18:21;1.55;;;0.30;;
44214;SDS011;29884;47.450;19.124;2022-07-10T05:20:47;0.55;;;0.20;;
44214;SDS011;29884;47.450;19.124;2022-07-10T05:23:14;0.30;;;0.20;;
44214;SDS011;29884;47.450;19.124;2022-07-10T05:25:40;0.32;;;0.20;;
44214;SDS011;29884;47.450;19.124;2022-07-10T05:28:06;0.57;;;0.28;;
44214;SDS011;29884;47.450;19.124;2022-07-10T05:30:33;0.20;;;0.20;;
44214;SDS011;29884;47.450;19.124;2022-07-10T05:32:59;0.70;;;0.20;;
44214;SDS011;29884;47.450;19.124;2022-07-10T05:35:25;1.40;;;0.40;;
44214;SDS011;29884;47.450;19.124;2022-07-10T05:37:51;1.48;;;0.20;;
44214;SDS011;29884;47.450;19.124;2022-07-10T05:40:17;0.32;;;0.20;;
44214;SDS011;29884;47.450;19.124;2022-07-10T05:42:43;0.25;;;0.20;;
44214;SDS011;29884;47.450;19.124;2022-07-10T05:45:10;0.73;;;0.20;;
44214;SDS011;29884;47.450;19.124;2022-07-10T05:47:36;0.52;;;0.20;;
44214;SDS011;29884;47.450;19.124;2022-07-10T05:50:03;0.40;;;0.20;;
44214;SDS011;29884;47.450;19.124;2022-07-10T05:52:29;0.20;;;0.20;;
44214;SDS011;29884;47.450;19.124;2022-07-10T05:54:58;0.38;;;0.28;;
44214;SDS011;29884;47.450;19.124;2022-07-10T05:57:24;0.30;;;0.22;;
44214;SDS011;29884;47.450;19.124;2022-07-10T05:59:50;0.60;;;0.30;;
44214;SDS011;29884;47.450;19.124;2022-07-10T06:02:16;0.80;;;0.30;;
44214;SDS011;29884;47.450;19.124;2022-07-10T06:04:42;0.35;;;0.20;;
44214;SDS011;29884;47.450;19.124;2022-07-10T06:07:08;0.47;;;0.28;;
44214;SDS011;29884;47.450;19.124;2022-07-10T06:09:33;0.50;;;0.28;;
44214;SDS011;29884;47.450;19.124;2022-07-10T06:12:00;0.40;;;0.30;;
44214;SDS011;29884;47.450;19.124;2022-07-10T06:14:26;0.88;;;0.40;;
44214;SDS011;29884;47.450;19.124;2022-07-10T06:16:51;1.33;;;0.28;;
44214;SDS011;29884;47.450;19.124;2022-07-10T06:19:17;0.50;;;0.30;;
44214;SDS011;29884;47.450;19.124;2022-07-10T06:21:43;0.43;;;0.30;;
44214;SDS011;29884;47.450;19.124;2022-07-10T06:24:09;0.32;;;0.30;;
44214;SDS011;29884;47.450;19.124;2022-07-10T06:26:35;0.93;;;0.30;;
44214;SDS011;29884;47.450;19.124;2022-07-10T06:29:01;1.02;;;0.30;;
44214;SDS011;29884;47.450;19.124;2022-07-10T06:31:27;0.40;;;0.35;;
44214;SDS011;29884;47.450;19.124;2022-07-10T06:33:53;0.98;;;0.30;;
44214;SDS011;29884;47.450;19.124;2022-07-10T06:36:19;3.25;;;0.30;;
44214;SDS011;29884;47.450;19.124;2022-07-10T06:38:45;0.60;;;0.40;;
44214;SDS011;29884;47.450;19.124;2022-07-10T06:41:11;0.60;;;0.30;;
44214;SDS011;29884;47.450;19.124;2022-07-10T06:43:37;0.95;;;0.30;;
44214;SDS011;29884;47.450;19.124;2022-07-10T06:46:03;0.40;;;0.30;;
44214;SDS011;29884;47.450;19.124;2022-07-10T06:48:29;0.60;;;0.30;;
44214;SDS011;29884;47.450;19.124;2022-07-10T06:50:54;0.30;;;0.25;;
44214;SDS011;29884;47.450;19.124;2022-07-10T06:53:20;0.50;;;0.30;;
44214;SDS011;29884;47.450;19.124;2022-07-10T06:55:52;0.90;;;0.20;;
44214;SDS011;29884;47.450;19.124;2022-07-10T06:58:18;0.30;;;0.20;;
44214;SDS011;29884;47.450;19.124;2022-07-10T07:00:44;0.52;;;0.30;;
44214;SDS011;29884;47.450;19.124;2022-07-10T07:03:09;0.30;;;0.22;;
44214;SDS011;29884;47.450;19.124;2022-07-10T07:05:35;0.40;;;0.30;;
44214;SDS011;29884;47.450;19.124;2022-07-10T07:08:01;0.77;;;0.30;;
44214;SDS011;29884;47.450;19.124;2022-07-10T07:10:27;0.30;;;0.20;;
44214;SDS011;29884;47.450;19.124;2022-07-10T07:12:53;0.30;;;0.30;;
44214;SDS011;29884;47.450;19.124;2022-07-10T07:15:19;0.60;;;0.28;;
44214;SDS011;29884;47.450;19.124;2022-07-10T07:17:48;0.50;;;0.20;;
44214;SDS011;29884;47.450;19.124;2022-07-10T07:20:33;0.25;;;0.10;;
44214;SDS011;29884;47.450;19.124;2022-07-10T07:23:18;0.65;;;0.20;;
44214;SDS011;29884;47.450;19.124;2022-07-10T07:25:44;0.43;;;0.22;;
44214;SDS011;29884;47.450;19.124;2022-07-10T07:28:16;0.73;;;0.20;;
44214;SDS011;29884;47.450;19.124;2022-07-10T07:30:43;1.70;;;0.17;;
44214;SDS011;29884;47.450;19.124;2022-07-10T07:33:10;0.75;;;0.10;;
44214;SDS011;29884;47.450;19.124;2022-07-10T07:35:36;0.10;;;0.10;;
44214;SDS011;29884;47.450;19.124;2022-07-10T07:38:02;1.27;;;0.20;;
44214;SDS011;29884;47.450;19.124;2022-07-10T07:40:28;0.10;;;0.10;;
44214;SDS011;29884;47.450;19.124;2022-07-10T07:42:55;0.20;;;0.10;;
44214;SDS011;29884;47.450;19.124;2022-07-10T07:45:21;1.02;;;0.20;;
44214;SDS011;29884;47.450;19.124;2022-07-10T07:47:48;0.40;;;0.20;;
44214;SDS011;29884;47.450;19.124;2022-07-10T07:50:28;0.22;;;0.10;;
44214;SDS011;29884;47.450;19.124;2022-07-10T07:52:57;2.70;;;0.15;;
44214;SDS011;29884;47.450;19.124;2022-07-10T07:55:23;0.20;;;0.20;;
44214;SDS011;29884;47.450;19.124;2022-07-10T07:57:50;0.20;;;0.10;;
44214;SDS011;29884;47.450;19.124;2022-07-10T08:00:18;0.35;;;0.10;;
44214;SDS011;29884;47.450;19.124;2022-07-10T08:02:44;0.15;;;0.13;;
44214;SDS011;29884;47.450;19.124;2022-07-10T08:05:10;0.30;;;0.10;;
44214;SDS011;29884;47.450;19.124;2022-07-10T08:07:37;1.05;;;0.30;;
44214;SDS011;29884;47.450;19.124;2022-07-10T08:10:17;0.10;;;0.10;;
44214;SDS011;29884;47.450;19.124;2022-07-10T08:12:45;0.10;;;0.10;;
44214;SDS011;29884;47.450;19.124;2022-07-10T08:15:13;0.20;;;0.10;;
44214;SDS011;29884;47.450;19.124;2022-07-10T08:17:40;2.22;;;0.10;;
44214;SDS011;29884;47.450;19.124;2022-07-10T08:20:06;0.32;;;0.10;;
44214;SDS011;29884;47.450;19.124;2022-07-10T08:22:35;0.20;;;0.20;;
44214;SDS011;29884;47.450;19.124;2022-07-10T08:25:01;0.20;;;0.20;;
44214;SDS011;29884;47.450;19.124;2022-07-10T08:27:27;0.10;;;0.10;;
44214;SDS011;29884;47.450;19.124;2022-07-10T08:29:53;0.17;;;0.10;;
44214;SDS011;29884;47.450;19.124;2022-07-10T08:32:19;0.20;;;0.10;;
44214;SDS011;29884;47.450;19.124;2022-07-10T08:34:45;2.15;;;0.10;;
44214;SDS011;29884;47.450;19.124;2022-07-10T08:37:11;0.30;;;0.20;;
44214;SDS011;29884;47.450;19.124;2022-07-10T08:39:36;0.20;;;0.20;;
44214;SDS011;29884;47.450;19.124;2022-07-10T08:42:04;0.10;;;0.10;;
44214;SDS011;29884;47.450;19.124;2022-07-10T08:44:31;0.30;;;0.10;;
44214;SDS011;29884;47.450;19.124;2022-07-10T08:46:58;0.30;;;0.17;;
44214;SDS011;29884;47.450;19.124;2022-07-10T08:49:26;0.40;;;0.15;;
44214;SDS011;29884;47.450;19.124;2022-07-10T08:54:33;0.10;;;0.10;;
44214;SDS011;29884;47.450;19.124;2022-07-10T08:57:01;0.40;;;0.10;;
44214;SDS011;29884;47.450;19.124;2022-07-10T08:59:28;0.52;;;0.10;;
44214;SDS011;29884;47.450;19.124;2022-07-10T09:01:54;0.28;;;0.15;;
44214;SDS011;29884;47.450;19.124;2022-07-10T09:04:21;0.10;;;0.10;;
44214;SDS011;29884;47.450;19.124;2022-07-10T09:06:48;0.43;;;0.20;;
44214;SDS011;29884;47.450;19.124;2022-07-10T09:09:15;0.10;;;0.10;;
44214;SDS011;29884;47.450;19.124;2022-07-10T09:11:41;0.17;;;0.10;;
44214;SDS011;29884;47.450;19.124;2022-07-10T09:14:08;0.20;;;0.10;;
44214;SDS011;29884;47.450;19.124;2022-07-10T09:16:37;0.20;;;0.10;;
44214;SDS011;29884;47.450;19.124;2022-07-10T09:21:50;0.10;;;0.10;;
44214;SDS011;29884;47.450;19.124;2022-07-10T09:24:20;1.08;;;0.20;;
44214;SDS011;29884;47.450;19.124;2022-07-10T09:26:57;0.10;;;0.10;;
44214;SDS011;29884;47.450;19.124;2022-07-10T09:29:28;0.10;;;0.10;;
44214;SDS011;29884;47.450;19.124;2022-07-10T09:31:55;0.17;;;0.10;;
44214;SDS011;29884;47.450;19.124;2022-07-10T09:34:37;0.65;;;0.10;;
44214;SDS011;29884;47.450;19.124;2022-07-10T09:39:54;0.75;;;0.10;;
44214;SDS011;29884;47.450;19.124;2022-07-10T09:42:40;0.10;;;0.10;;
44214;SDS011;29884;47.450;19.124;2022-07-10T09:47:37;0.22;;;0.00;;
44214;SDS011;29884;47.450;19.124;2022-07-10T09:50:03;0.10;;;0.10;;
44214;SDS011;29884;47.450;19.124;2022-07-10T09:52:29;0.10;;;0.10;;
44214;SDS011;29884;47.450;19.124;2022-07-10T09:54:56;0.10;;;0.10;;
44214;SDS011;29884;47.450;19.124;2022-07-10T09:57:24;0.20;;;0.03;;
44214;SDS011;29884;47.450;19.124;2022-07-10T09:59:55;0.10;;;0.10;;
44214;SDS011;29884;47.450;19.124;2022-07-10T10:02:21;0.00;;;0.00;;
44214;SDS011;29884;47.450;19.124;2022-07-10T10:04:48;0.30;;;0.10;;
44214;SDS011;29884;47.450;19.124;2022-07-10T10:07:14;0.05;;;0.03;;
44214;SDS011;29884;47.450;19.124;2022-07-10T10:09:48;0.10;;;0.10;;
44214;SDS011;29884;47.450;19.124;2022-07-10T10:12:39;0.10;;;0.10;;
44214;SDS011;29884;47.450;19.124;2022-07-10T10:15:10;0.63;;;0.10;;
44214;SDS011;29884;47.450;19.124;2022-07-10T10:17:36;0.63;;;0.20;;
44214;SDS011;29884;47.450;19.124;2022-07-10T10:20:05;0.10;;;0.10;;
44214;SDS011;29884;47.450;19.124;2022-07-10T10:22:51;0.15;;;0.10;;
44214;SDS011;29884;47.450;19.124;2022-07-10T10:25:20;0.28;;;0.05;;
44214;SDS011;29884;47.450;19.124;2022-07-10T10:27:48;0.35;;;0.10;;
44214;SDS011;29884;47.450;19.124;2022-07-10T10:30:15;0.30;;;0.05;;
44214;SDS011;29884;47.450;19.124;2022-07-10T10:32:42;0.20;;;0.10;;
44214;SDS011;29884;47.450;19.124;2022-07-10T10:35:08;0.25;;;0.00;;
44214;SDS011;29884;47.450;19.124;2022-07-10T10:37:40;0.30;;;0.10;;
44214;SDS011;29884;47.450;19.124;2022-07-10T10:40:09;0.30;;;0.10;;
44214;SDS011;29884;47.450;19.124;2022-07-10T10:42:39;0.10;;;0.10;;
44214;SDS011;29884;47.450;19.124;2022-07-10T10:48:01;0.00;;;0.00;;
44214;SDS011;29884;47.450;19.124;2022-07-10T10:51:12;0.00;;;0.00;;
44214;SDS011;29884;47.450;19.124;2022-07-10T10:53:23;0.03;;;0.03;;
44214;SDS011;29884;47.450;19.124;2022-07-10T10:58:36;0.22;;;0.10;;
44214;SDS011;29884;47.450;19.124;2022-07-10T11:04:12;0.13;;;0.00;;
44214;SDS011;29884;47.450;19.124;2022-07-10T11:06:40;0.10;;;0.10;;
44214;SDS011;29884;47.450;19.124;2022-07-10T11:12:02;0.00;;;0.00;;
44214;SDS011;29884;47.450;19.124;2022-07-10T11:17:07;0.10;;;0.00;;
44214;SDS011;29884;47.450;19.124;2022-07-10T11:19:34;0.10;;;0.00;;
44214;SDS011;29884;47.450;19.124;2022-07-10T11:30:00;0.15;;;0.00;;
44214;SDS011;29884;47.450;19.124;2022-07-10T11:32:27;1.00;;;0.10;;
44214;SDS011;29884;47.450;19.124;2022-07-10T11:34:53;1.17;;;0.10;;
44214;SDS011;29884;47.450;19.124;2022-07-10T11:37:20;1.65;;;0.10;;
44214;SDS011;29884;47.450;19.124;2022-07-10T11:39:47;0.55;;;0.10;;
44214;SDS011;29884;47.450;19.124;2022-07-10T11:42:13;0.32;;;0.10;;
44214;SDS011;29884;47.450;19.124;2022-07-10T11:44:38;0.00;;;0.00;;
44214;SDS011;29884;47.450;19.124;2022-07-10T11:47:05;0.47;;;0.00;;
44214;SDS011;29884;47.450;19.124;2022-07-10T11:49:32;2.25;;;0.10;;
44214;SDS011;29884;47.450;19.124;2022-07-10T11:52:02;1.88;;;0.10;;
44214;SDS011;29884;47.450;19.124;2022-07-10T11:54:29;0.20;;;0.10;;
44214;SDS011;29884;47.450;19.124;2022-07-10T11:56:55;0.43;;;0.03;;
44214;SDS011;29884;47.450;19.124;2022-07-10T11:59:24;0.00;;;0.00;;
44214;SDS011;29884;47.450;19.124;2022-07-10T12:01:52;9.18;;;0.40;;
44214;SDS011;29884;47.450;19.124;2022-07-10T12:04:19;1.85;;;0.10;;
44214;SDS011;29884;47.450;19.124;2022-07-10T12:06:50;1.30;;;0.20;;
44214;SDS011;29884;47.450;19.124;2022-07-10T12:09:18;1.85;;;0.10;;
44214;SDS011;29884;47.450;19.124;2022-07-10T12:12:05;0.10;;;0.10;;
44214;SDS011;29884;47.450;19.124;2022-07-10T12:14:33;0.10;;;0.10;;
44214;SDS011;29884;47.450;19.124;2022-07-10T12:17:00;0.47;;;0.00;;
44214;SDS011;29884;47.450;19.124;2022-07-10T12:19:29;0.30;;;0.10;;
44214;SDS011;29884;47.450;19.124;2022-07-10T12:22:01;0.00;;;0.00;;
44214;SDS011;29884;47.450;19.124;2022-07-10T12:24:27;0.30;;;0.10;;
44214;SDS011;29884;47.450;19.124;2022-07-10T12:26:53;0.00;;;0.00;;
44214;SDS011;29884;47.450;19.124;2022-07-10T12:31:49;0.10;;;0.00;;
44214;SDS011;29884;47.450;19.124;2022-07-10T12:34:17;0.15;;;0.00;;
44214;SDS011;29884;47.450;19.124;2022-07-10T12:36:50;0.10;;;0.00;;
44214;SDS011;29884;47.450;19.124;2022-07-10T12:39:23;0.10;;;0.00;;
44214;SDS011;29884;47.450;19.124;2022-07-10T12:44:42;0.52;;;0.17;;
44214;SDS011;29884;47.450;19.124;2022-07-10T12:47:16;0.30;;;0.10;;
44214;SDS011;29884;47.450;19.124;2022-07-10T12:52:32;2.10;;;0.00;;
44214;SDS011;29884;47.450;19.124;2022-07-10T12:55:09;0.00;;;0.00;;
44214;SDS011;29884;47.450;19.124;2022-07-10T13:00:21;2.40;;;0.10;;
44214;SDS011;29884;47.450;19.124;2022-07-10T13:03:03;0.10;;;0.08;;
44214;SDS011;29884;47.450;19.124;2022-07-10T13:05:33;0.10;;;0.00;;
44214;SDS011;29884;47.450;19.124;2022-07-10T13:08:17;0.13;;;0.08;;
44214;SDS011;29884;47.450;19.124;2022-07-10T13:11:06;0.00;;;0.00;;
44214;SDS011;29884;47.450;19.124;2022-07-10T13:13:33;0.03;;;0.03;;
44214;SDS011;29884;47.450;19.124;2022-07-10T13:15:59;0.35;;;0.00;;
44214;SDS011;29884;47.450;19.124;2022-07-10T13:18:25;1.38;;;0.10;;
44214;SDS011;29884;47.450;19.124;2022-07-10T13:20:56;0.80;;;0.10;;
44214;SDS011;29884;47.450;19.124;2022-07-10T13:23:23;0.80;;;0.10;;
44214;SDS011;29884;47.450;19.124;2022-07-10T13:25:53;0.10;;;0.00;;
44214;SDS011;29884;47.450;19.124;2022-07-10T13:28:19;0.20;;;0.00;;
44214;SDS011;29884;47.450;19.124;2022-07-10T13:30:45;0.10;;;0.00;;
44214;SDS011;29884;47.450;19.124;2022-07-10T13:33:11;0.10;;;0.10;;
44214;SDS011;29884;47.450;19.124;2022-07-10T13:35:37;0.28;;;0.10;;
44214;SDS011;29884;47.450;19.124;2022-07-10T13:38:04;1.40;;;0.10;;
44214;SDS011;29884;47.450;19.124;2022-07-10T13:40:30;0.15;;;0.00;;
44214;SDS011;29884;47.450;19.124;2022-07-10T13:42:59;0.10;;;0.00;;
44214;SDS011;29884;47.450;19.124;2022-07-10T13:45:25;0.10;;;0.10;;
44214;SDS011;29884;47.450;19.124;2022-07-10T13:47:58;0.10;;;0.00;;
44214;SDS011;29884;47.450;19.124;2022-07-10T13:50:24;0.13;;;0.00;;
44214;SDS011;29884;47.450;19.124;2022-07-10T13:52:50;0.28;;;0.03;;
44214;SDS011;29884;47.450;19.124;2022-07-10T13:55:16;0.10;;;0.00;;
44214;SDS011;29884;47.450;19.124;2022-07-10T13:57:42;0.65;;;0.20;;
44214;SDS011;29884;47.450;19.124;2022-07-10T14:00:09;0.30;;;0.10;;
44214;SDS011;29884;47.450;19.124;2022-07-10T14:02:36;0.15;;;0.00;;
44214;SDS011;29884;47.450;19.124;2022-07-10T14:05:02;1.55;;;0.10;;
44214;SDS011;29884;47.450;19.124;2022-07-10T14:07:28;0.32;;;0.10;;
44214;SDS011;29884;47.450;19.124;2022-07-10T14:09:53;2.05;;;0.10;;
44214;SDS011;29884;47.450;19.124;2022-07-10T14:12:20;0.10;;;0.10;;
44214;SDS011;29884;47.450;19.124;2022-07-10T14:14:46;0.22;;;0.03;;
44214;SDS011;29884;47.450;19.124;2022-07-10T14:17:12;1.20;;;0.17;;
44214;SDS011;29884;47.450;19.124;2022-07-10T14:19:37;0.95;;;0.10;;
44214;SDS011;29884;47.450;19.124;2022-07-10T14:22:05;0.00;;;0.00;;
44214;SDS011;29884;47.450;19.124;2022-07-10T14:24:31;0.20;;;0.00;;
44214;SDS011;29884;47.450;19.124;2022-07-10T14:26:57;3.92;;;0.00;;
44214;SDS011;29884;47.450;19.124;2022-07-10T14:29:23;0.32;;;0.20;;
44214;SDS011;29884;47.450;19.124;2022-07-10T14:31:49;1.42;;;0.20;;
44214;SDS011;29884;47.450;19.124;2022-07-10T14:34:15;0.20;;;0.10;;
44214;SDS011;29884;47.450;19.124;2022-07-10T14:36:41;0.28;;;0.08;;
44214;SDS011;29884;47.450;19.124;2022-07-10T14:39:07;0.10;;;0.00;;
44214;SDS011;29884;47.450;19.124;2022-07-10T14:41:32;0.10;;;0.08;;
44214;SDS011;29884;47.450;19.124;2022-07-10T14:43:58;1.55;;;0.00;;
44214;SDS011;29884;47.450;19.124;2022-07-10T14:46:24;0.30;;;0.00;;
44214;SDS011;29884;47.450;19.124;2022-07-10T14:48:50;1.08;;;0.10;;
44214;SDS011;29884;47.450;19.124;2022-07-10T14:51:16;0.47;;;0.20;;
44214;SDS011;29884;47.450;19.124;2022-07-10T14:53:42;2.63;;;0.08;;
44214;SDS011;29884;47.450;19.124;2022-07-10T14:56:10;0.73;;;0.10;;
44214;SDS011;29884;47.450;19.124;2022-07-10T14:58:36;0.80;;;0.10;;
44214;SDS011;29884;47.450;19.124;2022-07-10T15:01:03;0.55;;;0.10;;
44214;SDS011;29884;47.450;19.124;2022-07-10T15:03:29;0.40;;;0.10;;
44214;SDS011;29884;47.450;19.124;2022-07-10T15:05:55;2.20;;;0.10;;
44214;SDS011;29884;47.450;19.124;2022-07-10T15:08:25;2.22;;;0.00;;
44214;SDS011;29884;47.450;19.124;2022-07-10T15:10:51;0.75;;;0.00;;
44214;SDS011;29884;47.450;19.124;2022-07-10T15:13:17;1.45;;;0.00;;
44214;SDS011;29884;47.450;19.124;2022-07-10T15:15:43;0.75;;;0.10;;
44214;SDS011;29884;47.450;19.124;2022-07-10T15:18:09;2.42;;;0.10;;